createdAt,value
2023-03-18T00:00:24.324Z,106.83
2023-03-18T00:02:50.907Z,106.01
2023-03-18T00:05:17.377Z,106.56
2023-03-18T00:07:43.845Z,104.13
2023-03-18T00:10:10.280Z,104.49
2023-03-18T00:12:36.726Z,102.17
2023-03-18T00:15:03.175Z,103.09
2023-03-18T00:17:29.611Z,101.47
2023-03-18T00:19:56.089Z,101.26
2023-03-18T00:22:22.569Z,100.31
2023-03-18T00:24:49.162Z,99.08
2023-03-18T00:27:15.649Z,98.74
2023-03-18T00:29:42.115Z,98.05
2023-03-18T00:32:08.571Z,97.10
2023-03-18T00:34:35.025Z,97.51
2023-03-18T00:37:01.494Z,96.19
2023-03-18T00:39:27.936Z,94.99
2023-03-18T00:41:54.379Z,94.64
2023-03-18T00:44:20.847Z,93.63
2023-03-18T00:46:47.336Z,91.34
2023-03-18T00:49:13.815Z,91.13
2023-03-18T00:51:40.277Z,90.36
2023-03-18T00:54:06.736Z,88.94
2023-03-18T00:56:33.214Z,89.28
2023-03-18T00:58:59.658Z,89.44
2023-03-18T01:01:26.187Z,87.66
2023-03-18T05:06:11.730Z,38.83
2023-03-18T05:08:38.212Z,38.83
2023-03-18T05:11:04.658Z,38.77
2023-03-18T05:13:31.124Z,37.77
2023-03-18T05:15:57.587Z,37.09
2023-03-18T05:18:24.078Z,36.60
2023-03-18T05:20:50.539Z,37.04
2023-03-18T05:23:17.011Z,36.71
2023-03-18T05:25:43.488Z,36.17
2023-03-18T05:28:11.316Z,35.95
2023-03-18T05:30:37.942Z,36.10
2023-03-18T05:33:04.450Z,35.25
2023-03-18T05:35:31.142Z,35.25
2023-03-18T05:37:57.759Z,34.86
2023-03-18T05:40:24.224Z,34.54
2023-03-18T05:42:56.356Z,34.42
2023-03-18T05:45:23.226Z,34.22
2023-03-18T05:47:49.688Z,33.49
2023-03-18T05:50:16.148Z,33.58
2023-03-18T05:52:42.606Z,32.15
2023-03-18T05:55:09.047Z,32.58
2023-03-18T05:57:35.542Z,31.48
2023-03-18T06:00:01.984Z,31.65
2023-03-18T06:02:28.466Z,32.17
2023-03-18T06:04:54.950Z,31.63
2023-03-18T06:07:21.402Z,31.72
2023-03-18T06:09:47.871Z,30.95
2023-03-18T06:12:14.314Z,30.71
2023-03-18T06:14:40.822Z,30.71
2023-03-18T06:17:07.275Z,30.42
2023-03-18T06:19:33.732Z,29.73
2023-03-18T06:22:00.188Z,29.38
2023-03-18T06:24:26.651Z,29.55
2023-03-18T06:26:53.107Z,29.10
2023-03-18T06:29:19.557Z,28.67
2023-03-18T06:31:46.026Z,27.68
2023-03-18T06:34:12.495Z,28.08
2023-03-18T06:36:38.953Z,27.95
2023-03-18T06:39:05.396Z,27.18
2023-03-18T06:41:31.909Z,27.66
2023-03-18T06:43:58.375Z,26.88
2023-03-18T06:46:24.844Z,27.49
2023-03-18T06:48:51.318Z,26.20
2023-03-18T06:51:17.782Z,26.07
2023-03-18T06:53:44.235Z,26.09
2023-03-18T06:56:10.679Z,25.86
2023-03-18T06:58:37.174Z,25.24
2023-03-18T07:01:03.663Z,25.72
2023-03-18T07:03:30.161Z,24.76
2023-03-18T07:05:56.628Z,24.78
2023-03-18T07:08:23.083Z,23.65
2023-03-18T07:10:49.532Z,23.10
2023-03-18T07:13:15.992Z,23.03
2023-03-18T07:15:42.509Z,22.83
2023-03-18T07:18:10.921Z,22.86
2023-03-18T07:20:38.418Z,22.58
2023-03-18T07:23:04.868Z,22.61
2023-03-18T07:25:31.484Z,22.52
2023-03-18T07:27:58.055Z,22.07
2023-03-18T07:30:24.526Z,21.69
2023-03-18T07:32:51.035Z,21.21
2023-03-18T07:35:17.611Z,21.82
2023-03-18T07:37:44.070Z,21.49
2023-03-18T07:40:10.538Z,21.71
2023-03-18T07:42:36.990Z,20.91
2023-03-18T07:45:03.461Z,21.23
2023-03-18T07:47:29.903Z,20.93
2023-03-18T07:49:56.356Z,20.79
2023-03-18T07:52:22.866Z,21.00
2023-03-18T07:54:49.361Z,19.98
2023-03-18T07:57:15.869Z,20.42
2023-03-18T07:59:42.389Z,20.41
2023-03-18T08:02:08.847Z,19.60
2023-03-18T08:04:35.358Z,19.55
2023-03-18T08:07:01.864Z,19.09
2023-03-18T08:09:28.309Z,18.55
2023-03-18T08:11:54.753Z,18.16
2023-03-18T08:14:21.217Z,18.74
2023-03-18T08:16:47.693Z,17.56
2023-03-18T08:19:14.164Z,17.10
2023-03-18T08:21:40.610Z,17.55
2023-03-18T08:24:07.062Z,17.18
2023-03-18T08:26:33.525Z,16.87
2023-03-18T08:29:00.025Z,16.78
2023-03-18T08:31:26.565Z,17.12
2023-03-18T08:33:53.080Z,17.04
2023-03-18T08:36:19.544Z,16.94
2023-03-18T08:38:46.006Z,16.24
2023-03-18T08:41:12.459Z,15.95
2023-03-18T08:43:39.222Z,15.22
2023-03-18T08:46:05.743Z,15.06
2023-03-18T08:48:32.259Z,15.29
2023-03-18T08:50:58.731Z,15.14
2023-03-18T08:53:25.189Z,15.37
2023-03-18T08:55:51.662Z,14.68
2023-03-18T08:58:18.100Z,15.03
2023-03-18T09:00:44.629Z,15.20
2023-03-18T09:03:11.151Z,14.07
2023-03-18T09:05:37.707Z,13.98
2023-03-18T09:08:04.247Z,14.07
2023-03-18T09:10:30.712Z,14.15
2023-03-18T09:12:57.190Z,13.77
2023-03-18T09:15:23.671Z,13.90
2023-03-18T09:18:07.895Z,13.41
2023-03-18T09:20:36.653Z,13.55
2023-03-18T09:23:03.135Z,13.80
2023-03-18T09:25:29.592Z,13.89
2023-03-18T09:27:56.060Z,14.09
2023-03-18T09:30:22.514Z,13.52
2023-03-18T09:32:49.040Z,13.98
2023-03-18T09:35:15.559Z,13.08
2023-03-18T09:37:42.022Z,13.27
2023-03-18T09:40:08.486Z,13.13
2023-03-18T09:42:34.964Z,13.15
2023-03-18T09:45:01.420Z,13.36
2023-03-18T09:47:27.916Z,13.52
2023-03-18T09:49:54.376Z,13.39
2023-03-18T09:52:20.813Z,13.27
2023-03-18T09:54:47.290Z,13.81
2023-03-18T09:57:13.753Z,13.39
2023-03-18T09:59:40.219Z,13.72
2023-03-18T10:02:06.723Z,13.52
2023-03-18T10:04:33.211Z,13.74
2023-03-18T10:06:59.666Z,13.47
2023-03-18T10:09:26.124Z,13.60
2023-03-18T10:11:52.633Z,14.17
2023-03-18T10:14:19.091Z,14.16
2023-03-18T10:16:45.564Z,13.51
2023-03-18T10:19:12.027Z,13.79
2023-03-18T10:21:38.484Z,14.41
2023-03-18T10:24:04.926Z,14.31
2023-03-18T10:26:31.369Z,14.58
2023-03-18T10:28:57.845Z,14.22
2023-03-18T10:31:24.379Z,13.97
2023-03-18T10:33:50.869Z,14.02
2023-03-18T10:36:17.417Z,14.02
2023-03-18T10:38:43.887Z,13.44
2023-03-18T10:41:10.362Z,14.27
2023-03-18T10:43:36.847Z,13.91
2023-03-18T10:46:03.363Z,14.43
2023-03-18T10:48:29.891Z,14.47
2023-03-18T10:50:56.404Z,14.69
2023-03-18T10:53:22.866Z,14.45
2023-03-18T10:55:49.332Z,14.70
2023-03-18T10:58:15.797Z,14.77
2023-03-18T11:00:42.268Z,14.75
2023-03-18T11:03:08.838Z,13.80
2023-03-18T11:05:35.369Z,13.37
2023-03-18T11:08:01.837Z,14.01
2023-03-18T11:10:28.303Z,14.08
2023-03-18T11:12:54.778Z,13.20
2023-03-18T11:15:21.291Z,13.73
2023-03-18T11:17:47.752Z,13.98
2023-03-18T11:20:14.223Z,14.24
2023-03-18T11:22:40.672Z,13.93
2023-03-18T11:25:07.124Z,14.13
2023-03-18T11:27:33.688Z,14.00
2023-03-18T11:30:00.215Z,14.16
2023-03-18T11:32:26.689Z,14.29
2023-03-18T11:34:53.135Z,15.03
2023-03-18T11:37:19.596Z,14.82
2023-03-18T11:39:46.067Z,16.51
2023-03-18T11:42:12.523Z,16.17
2023-03-18T11:44:38.982Z,17.08
2023-03-18T11:47:05.483Z,19.61
2023-03-18T11:49:32.028Z,18.79
2023-03-18T11:51:58.482Z,19.58
2023-03-18T11:54:24.972Z,21.12
2023-03-18T11:56:51.418Z,22.35
2023-03-18T11:59:17.859Z,22.83
2023-03-18T12:01:44.361Z,23.43
2023-03-18T12:04:10.821Z,24.84
2023-03-18T12:06:37.286Z,26.58
2023-03-18T12:09:03.751Z,27.08
2023-03-18T12:11:30.209Z,27.91
2023-03-18T12:13:56.653Z,29.15
2023-03-18T12:16:23.168Z,29.67
2023-03-18T12:18:49.657Z,30.68
2023-03-18T12:21:16.126Z,31.83
2023-03-18T12:23:42.606Z,32.95
2023-03-18T12:26:09.116Z,33.30
2023-03-18T12:28:35.575Z,34.06
2023-03-18T12:31:02.031Z,34.30
2023-03-18T12:33:28.494Z,34.38
2023-03-18T12:35:54.982Z,34.55
2023-03-18T12:38:21.477Z,34.85
2023-03-18T12:40:47.945Z,35.22
2023-03-18T12:43:14.415Z,35.43
2023-03-18T12:45:40.900Z,34.60
2023-03-18T12:48:07.369Z,35.28
2023-03-18T12:50:33.823Z,34.87
2023-03-18T12:53:00.278Z,34.77
2023-03-18T12:55:26.748Z,35.83
2023-03-18T12:57:53.226Z,34.72
2023-03-18T13:00:19.757Z,35.12
2023-03-18T13:02:46.299Z,35.13
2023-03-18T13:05:12.791Z,36.17
2023-03-18T13:07:39.254Z,35.80
2023-03-18T13:10:05.741Z,36.53
2023-03-18T13:12:32.192Z,37.52
2023-03-18T13:14:58.678Z,37.13
2023-03-18T13:17:25.147Z,38.24
2023-03-18T13:19:51.604Z,37.53
2023-03-18T13:22:18.048Z,37.61
2023-03-18T13:24:44.483Z,39.16
2023-03-18T13:27:10.952Z,39.58
2023-03-18T13:29:37.419Z,39.56
2023-03-18T13:32:03.890Z,39.54
2023-03-18T13:34:30.369Z,40.89
2023-03-18T13:36:56.818Z,41.06
2023-03-18T13:39:23.292Z,40.70
2023-03-18T13:41:49.751Z,41.45
2023-03-18T13:44:16.199Z,41.49
2023-03-18T13:46:42.655Z,41.10
2023-03-18T13:49:09.112Z,40.93
2023-03-18T13:51:35.563Z,40.97
2023-03-18T13:54:02.017Z,40.82
2023-03-18T13:56:28.470Z,40.81
2023-03-18T13:58:54.918Z,38.87
2023-03-18T14:01:21.428Z,40.19
2023-03-18T14:03:47.932Z,39.25
2023-03-18T14:06:15.763Z,39.89
2023-03-18T14:08:42.328Z,40.07
2023-03-18T14:11:08.803Z,40.09
2023-03-18T14:13:35.249Z,38.77
2023-03-18T14:16:01.754Z,38.68
2023-03-18T14:18:28.388Z,38.37
2023-03-18T14:20:54.859Z,37.62
2023-03-18T14:23:21.346Z,37.04
2023-03-18T14:25:47.805Z,36.19
2023-03-18T14:28:14.265Z,36.27
2023-03-18T14:30:40.722Z,36.40
2023-03-18T14:33:07.203Z,35.50
2023-03-18T14:35:33.944Z,34.73
2023-03-18T14:38:00.558Z,34.23
2023-03-18T14:40:27.021Z,34.31
2023-03-18T14:42:53.467Z,33.94
2023-03-18T14:45:19.936Z,33.10
2023-03-18T14:47:46.395Z,32.96
2023-03-18T14:50:12.848Z,32.75
2023-03-18T14:52:39.307Z,32.29
2023-03-18T14:55:05.779Z,31.73
2023-03-18T14:57:32.251Z,30.53
2023-03-18T14:59:58.746Z,31.10
2023-03-18T15:02:25.240Z,30.74
2023-03-18T15:04:51.723Z,29.93
2023-03-18T15:07:18.172Z,30.09
2023-03-18T15:09:44.616Z,28.73
2023-03-18T15:12:11.106Z,28.06
2023-03-18T15:14:37.552Z,27.80
2023-03-18T15:17:04.038Z,27.21
2023-03-18T15:19:30.494Z,27.59
2023-03-18T15:21:56.946Z,27.17
2023-03-18T15:24:23.391Z,26.54
2023-03-18T15:26:49.848Z,26.99
2023-03-18T15:29:16.295Z,26.68
2023-03-18T15:31:42.819Z,26.03
2023-03-18T15:34:09.297Z,25.62
2023-03-18T15:36:35.741Z,25.61
2023-03-18T15:39:02.191Z,25.65
2023-03-18T15:41:28.646Z,25.36
2023-03-18T15:43:55.130Z,24.90
2023-03-18T15:46:21.603Z,25.15
2023-03-18T15:48:48.066Z,25.15
2023-03-18T15:51:14.552Z,24.20
2023-03-18T15:53:41.018Z,24.01
2023-03-18T15:56:07.475Z,24.36
2023-03-18T15:58:33.960Z,23.78
2023-03-18T16:01:00.479Z,23.87
2023-03-18T16:03:27.058Z,23.21
2023-03-18T16:05:53.588Z,22.26
2023-03-18T16:08:20.046Z,22.54
2023-03-18T16:10:46.534Z,22.50
2023-03-18T16:13:13.015Z,22.09
2023-03-18T16:15:39.472Z,22.46
2023-03-18T16:18:05.932Z,22.09
2023-03-18T16:20:32.391Z,22.03
2023-03-18T16:22:58.851Z,23.27
2023-03-18T16:25:25.323Z,22.87
2023-03-18T16:27:51.784Z,22.91
2023-03-18T16:30:18.250Z,21.98
2023-03-18T16:32:44.720Z,23.92
2023-03-18T16:35:11.208Z,23.60
2023-03-18T16:37:37.664Z,23.67
2023-03-18T16:40:04.133Z,23.77
2023-03-18T16:42:30.611Z,24.45
2023-03-18T16:44:57.060Z,24.14
2023-03-18T16:47:23.579Z,24.79
2023-03-18T16:49:50.020Z,24.57
2023-03-18T16:52:16.472Z,24.59
2023-03-18T16:54:42.946Z,25.04
2023-03-18T16:57:09.415Z,25.09
2023-03-18T16:59:35.869Z,25.95
2023-03-18T17:02:02.319Z,25.86
2023-03-18T17:04:28.873Z,25.27
2023-03-18T17:06:55.373Z,25.89
2023-03-18T17:09:21.832Z,26.52
2023-03-18T17:11:48.286Z,26.66
2023-03-18T17:14:14.734Z,26.78
2023-03-18T17:16:41.235Z,27.83
2023-03-18T17:19:07.727Z,27.36
2023-03-18T17:21:34.200Z,27.49
2023-03-18T17:24:00.665Z,28.08
2023-03-18T17:26:27.150Z,28.88
2023-03-18T17:28:53.607Z,28.06
2023-03-18T17:31:20.161Z,28.61
2023-03-18T17:33:46.678Z,28.90
2023-03-18T17:36:13.151Z,28.95
2023-03-18T17:38:39.602Z,29.39
2023-03-18T17:41:06.062Z,29.15
2023-03-18T17:43:32.517Z,29.68
2023-03-18T17:45:59.033Z,29.50
2023-03-18T17:48:25.548Z,29.21
2023-03-18T17:50:52.023Z,29.23
2023-03-18T17:53:18.501Z,29.16
2023-03-18T17:55:44.954Z,28.76
2023-03-18T17:58:11.407Z,29.16
2023-03-18T18:00:37.859Z,29.57
2023-03-18T18:03:04.362Z,29.04
2023-03-18T18:05:30.837Z,29.89
2023-03-18T18:07:57.289Z,29.63
2023-03-18T18:10:23.783Z,29.46
2023-03-18T18:12:50.256Z,30.23
2023-03-18T18:15:16.716Z,29.80
2023-03-18T18:17:43.198Z,29.46
2023-03-18T18:20:09.642Z,30.04
2023-03-18T18:22:36.082Z,29.59
2023-03-18T18:25:02.545Z,29.23
2023-03-18T18:27:29.016Z,29.79
2023-03-18T18:29:55.495Z,29.92
2023-03-18T18:32:21.948Z,29.94
2023-03-18T18:34:48.411Z,29.75
2023-03-18T18:37:14.886Z,29.66
2023-03-18T18:39:41.347Z,29.37
2023-03-18T18:42:07.802Z,29.93
2023-03-18T18:44:34.239Z,29.77
2023-03-18T18:47:00.721Z,29.92
2023-03-18T18:49:27.205Z,29.24
2023-03-18T18:51:53.731Z,29.87
2023-03-18T18:54:20.207Z,29.96
2023-03-18T18:56:46.664Z,29.80
2023-03-18T18:59:13.125Z,29.91
2023-03-18T19:01:39.589Z,29.97
2023-03-18T19:04:06.058Z,30.21
2023-03-18T19:06:32.524Z,30.44
2023-03-18T19:08:59.011Z,30.20
2023-03-18T19:11:25.475Z,30.83
2023-03-18T19:13:52.018Z,30.23
2023-03-18T19:16:18.522Z,30.18
2023-03-18T19:18:44.976Z,29.93
2023-03-18T19:21:11.444Z,30.19
2023-03-18T19:23:37.922Z,30.93
2023-03-18T19:26:04.376Z,30.03
2023-03-18T19:28:30.842Z,30.60
2023-03-18T19:30:57.300Z,29.87
2023-03-18T19:33:23.785Z,30.09
2023-03-18T19:35:50.311Z,30.25
2023-03-18T19:38:16.806Z,30.42
2023-03-18T19:40:43.249Z,29.95
2023-03-18T19:43:09.692Z,29.90
2023-03-18T19:45:36.584Z,29.78
2023-03-18T19:48:03.242Z,29.68
2023-03-18T19:50:29.708Z,29.21
2023-03-18T19:52:56.303Z,29.40
2023-03-18T19:55:22.759Z,28.72
2023-03-18T19:57:49.239Z,28.46
2023-03-18T20:00:15.698Z,28.82
2023-03-18T20:02:42.166Z,28.15
2023-03-18T20:05:08.616Z,28.43
2023-03-18T20:07:35.085Z,28.32
2023-03-18T20:10:01.545Z,27.79
2023-03-18T20:12:27.987Z,27.81
2023-03-18T20:14:54.455Z,27.51
2023-03-18T20:17:20.924Z,27.41
2023-03-18T20:19:47.416Z,26.99
2023-03-18T20:22:13.861Z,27.64
2023-03-18T20:24:40.320Z,27.71
2023-03-18T20:27:06.768Z,27.46
2023-03-18T20:29:33.222Z,27.25
2023-03-18T20:31:59.747Z,26.88
2023-03-18T20:34:26.257Z,26.67
2023-03-18T20:36:52.734Z,26.58
2023-03-18T20:39:19.236Z,26.05
2023-03-18T20:41:45.692Z,26.06
2023-03-18T20:44:12.211Z,26.01
2023-03-18T20:46:38.682Z,25.20
2023-03-18T20:49:05.133Z,25.28
2023-03-18T20:51:31.646Z,25.02
2023-03-18T20:53:58.116Z,25.21
2023-03-18T20:56:24.572Z,24.10
2023-03-18T20:58:51.050Z,24.61
2023-03-18T21:01:17.557Z,24.67
2023-03-18T21:03:44.054Z,24.44
2023-03-18T21:06:10.533Z,24.45
2023-03-18T21:08:37.006Z,24.09
2023-03-18T21:11:03.443Z,24.01
2023-03-18T21:13:29.885Z,23.69
2023-03-18T21:15:56.350Z,23.83
2023-03-18T21:18:22.812Z,23.74
2023-03-18T21:20:49.279Z,23.24
2023-03-18T21:23:15.730Z,23.52
2023-03-18T21:25:42.179Z,23.54
2023-03-18T21:28:08.637Z,23.45
2023-03-18T21:30:35.110Z,23.15
2023-03-18T21:33:01.618Z,23.22
2023-03-18T21:35:28.076Z,22.98
2023-03-18T21:37:54.557Z,22.57
2023-03-18T21:40:21.018Z,22.50
2023-03-18T21:42:47.501Z,22.40
2023-03-18T21:45:13.955Z,21.81
2023-03-18T21:47:40.468Z,21.95
2023-03-18T21:50:06.936Z,22.05
2023-03-18T21:52:33.408Z,22.24
2023-03-18T21:54:59.866Z,21.80
2023-03-18T21:57:26.342Z,21.55
2023-03-18T21:59:52.801Z,21.63
2023-03-18T22:02:19.257Z,21.79
2023-03-18T22:04:45.703Z,21.35
2023-03-18T22:07:12.167Z,21.06
2023-03-18T22:09:38.634Z,21.50
2023-03-18T22:12:05.144Z,21.23
2023-03-18T22:14:31.654Z,21.25
2023-03-18T22:16:58.114Z,21.05
2023-03-18T22:19:24.569Z,20.90
2023-03-18T22:21:51.015Z,20.41
2023-03-18T22:24:17.466Z,20.71
2023-03-18T22:26:43.906Z,20.21
2023-03-18T22:29:10.359Z,20.77
2023-03-18T22:31:36.843Z,20.28
2023-03-18T22:34:03.346Z,20.83
2023-03-18T22:36:29.809Z,20.26
2023-03-18T22:38:56.260Z,19.96
2023-03-18T22:41:22.705Z,19.79
2023-03-18T22:43:49.138Z,19.86
2023-03-18T22:46:15.632Z,20.28
2023-03-18T22:48:42.113Z,20.20
2023-03-18T22:51:08.559Z,19.48
2023-03-18T22:53:35.026Z,19.95
2023-03-18T22:56:01.488Z,19.47
2023-03-18T22:58:27.957Z,19.71
2023-03-18T23:00:54.472Z,18.93
2023-03-18T23:03:20.929Z,19.25
2023-03-18T23:05:47.371Z,19.36
2023-03-18T23:08:13.832Z,19.18
2023-03-18T23:10:40.309Z,19.24
2023-03-18T23:13:06.764Z,19.22
2023-03-18T23:15:33.373Z,18.94
2023-03-18T23:17:59.949Z,18.92
2023-03-18T23:20:26.392Z,19.05
2023-03-18T23:22:52.859Z,18.74
2023-03-18T23:25:19.303Z,19.03
2023-03-18T23:27:45.757Z,18.55
2023-03-18T23:30:12.218Z,18.25
2023-03-18T23:32:38.703Z,19.00
2023-03-18T23:35:05.217Z,18.72
2023-03-18T23:37:31.699Z,18.22
2023-03-18T23:39:58.180Z,17.61
2023-03-18T23:42:24.643Z,17.82
2023-03-18T23:44:51.102Z,17.70
2023-03-18T23:47:17.577Z,17.86
2023-03-18T23:49:44.036Z,17.47
2023-03-18T23:52:10.477Z,16.97
2023-03-18T23:54:36.934Z,16.83
2023-03-18T23:57:03.379Z,16.80
2023-03-18T23:59:29.819Z,16.60
